Aérodrome :
LOGIN :

S'inscrire | Disclaimer

   EN    FR    IT 

 










Légende :    VFR   VFR Marginal   IFR   IFR Intensif   IFR Très Intensif
Visi : 
Plafond : 
>= 8 km
>= 3000ft
5 à 8 km
1000 à 3000 ft
1500m à 5 km
500 à 1000 ft
800 à 1500m
200 à 500 ft
< 800m
< 200 ft
Symboles :   Orages  Brouillard  Fortes neiges  Fortes précipitations  Vent > 20 kt
SIGMETs :   Divers  Orages  Givrage  Turbulence  Onde Orograph.  Cendres Volcan.







- Altitude de l'aérodrome : 302 ft
- Code IATA : MAH


LEMH - Menorca

DERNIER METAR :
  • 250630Z 10013KT CAVOK 19/16 Q1014

METARs EXPIRÉS :
  • 250600Z 10013KT CAVOK 19/16 Q1014
  • 250530Z 09011KT CAVOK 18/16 Q1014
  • 250500Z 08011KT CAVOK 18/16 Q1014
  • 250430Z 08010KT CAVOK 18/16 Q1014
  • 250400Z 08010KT CAVOK 18/16 Q1014

TAF TAF LEMH
Valide du 25 à 03h jusqu'au 26 à 03h UTC


250200Z 2503/2603 09011KT 9999 FEW015 TX23/2512Z TN16/2506Z
PROB30
TEMPO 2503/2512 09015G25KT
Pas de NOTAMs connus pour ce terrain.
1 SIGMET publié pour la FIR Barcelona (LECB) :
 
Orages noyés dans la masse
LECB SIGMET 3 VALID 250500/250700 LEVA
LECB BARCELONA FIR/UIR EMBD TS OBS AT 0505Z WI N4241 W00004 - N4036 W00046 - N3957 E00222 - N4207 E00307 - N4241 W00004 TOP FL340 MOV N 15KT NC=



MET'MAP, la Météo Aéronautique d'un coup d'oeil ! - Copyright ORBIFLY Décembre 2007 - Disclaimer

ORBIFLY MET'MAP TEAM :

Programmation & Développement : Alexandra Zaïnal
Conception & Développement : Baudouin d'Aumeries
Co-Programmation & Développement : Marc-Olivier Méhu
Soutien technique & logistique : Manuel Goepfert

Contact : metmap@orbifly.com




SOURCES & CREDITS :

   NOAA